Robinsons Corner, California
Current Conditions -  °F | °C
As of 9:53 AM on Saturday 20 Dec 2014 (Local Time) from KOVE Reporting Station
Light Rain Light Rain  
Wind Chill: 53°   Ceiling: 1300
Heat Index: 53°   Visibility: 10mi
Dew Point: 50°   Wind: 12mph
Humidity: 89%   Direction: 150°SSE
Pressure: 30.22"   Gusts: NA
Location:  39.5324°N, 121.648°W
Report Text: KOVE 201753Z AUTO 15010KT 10SM -RA OVC013 12/10 A3022 RMK AO2 RAB1659 SLP236 P0001 60002 T01170100 10117 20117 53019
Loading
Personal Weather Stations






























Interactive Weather Map New forecast layout! Learn more

10-Day Weather Forecast

Advertisements
Track Severe Weather on mobile